Union, Connecticut
Current Conditions -  °F | °C
As of 4:09 PM on Monday 22 Dec 2014 (Local Time) from KIJD Reporting Station
Overcast Overcast  
Wind Chill: 40°   Ceiling: 2000
Heat Index: 43°   Visibility: 10mi
Dew Point: 35°   Wind: 5mph
Humidity: 74%   Direction: 70°ENE
Pressure: 30.29"   Gusts: NA
Location:  41.9885°N, 72.2592°W
Report Text: KIJD 222109Z AUTO 07004KT 10SM BKN020 OVC038 06/02 A3029 RMK AO2 T00610017
Loading
Personal Weather Stations






























Interactive Weather Map New forecast layout! Learn more

10-Day Weather Forecast

Advertisements
Track Severe Weather on mobile